CheckWX is a tool to help pilots better visualize weather data.  It is not intended as a substitute for an official pre-flight weather briefing.

18:17:49 UTC

KEAR METAR
Kearney Regional Airport
Kearney, Nebraska, USA
Current

22 mins ago

KEAR 211756Z AUTO 07004KT 8SM -RA SCT015 BKN020 OVC035 21/19 A3012 RMK AO2 SLP184 P0000 60002 T02110189 10211 20183 50005
Observed
Jul-21 @ 17:56 UTC
Wind
  • 070° at 4 KTS
Visibility
8 SM
Flight Rules
MVFR
Conditions
Light Rain
Cloud Levels
  • Scattered at 1,500' AGL
  • Broken at 2,000' AGL
  • Overcast at 3,500' AGL
Temperature
21°C / 70°F
Dewpoint
19°C / 66°F
Humidity
88%
Altimeter
30.12" Hg
Pressure
1020.02 hPa
Current Rain
0.01"
Previous

1 hour ago

KEAR 211656Z AUTO 13004KT 10SM -RA FEW011 BKN017 21/18 A3012 RMK AO2 SLP184 P0001 T02110183
Observed
Jul-21 @ 16:56 UTC
Wind
  • 130° at 4 KTS
Visibility
10 SM
Flight Rules
MVFR
Conditions
Light Rain
Cloud Levels
  • Few at 1,100' AGL
  • Broken at 1,700' AGL
Temperature
21°C / 70°F
Dewpoint
18°C / 64°F
Humidity
83%
Altimeter
30.12" Hg
Pressure
1020.02 hPa
Current Rain
0.01"
Previous

2 hours ago

KEAR 211638Z AUTO 00000KT 10SM FEW010 BKN027 21/19 A3012 RMK AO2 RAE31 P0001
Observed
Jul-21 @ 16:38 UTC
Visibility
10 SM
Flight Rules
MVFR
Cloud Levels
  • Few at 1,000' AGL
  • Broken at 2,700' AGL
Temperature
21°C / 70°F
Dewpoint
19°C / 66°F
Humidity
88%
Altimeter
30.12" Hg
Pressure
1020.02 hPa
Current Rain
0.01"